ADDS TAF Data INFO
IDs: Format: Raw Decoded Include METARs

Data at: 0822 UTC 22 Jul 2018

KOAJ 220557Z 2206/2306 18006KT P6SM SCT010 BKN040
  TEMPO 2208/2212 BKN009
  FM221800 18010G20KT 4SM -TSRA BKN050CB
  FM230000 15008KT P6SM VCSH BKN035 AMD LTD TO CLD VIS AND WIND